Time;durP1;ratioP1;P1;durP2;ratioP2;P2;SDS_P1;SDS_P2;PMS_P1;PMS_P2;Temp;Humidity;BMP_temperature;BMP_pressure;BME280_temperature;BME280_humidity;BME280_pressure;Samples;Min_cycle;Max_cycle;Signal;HPM_P1;HPM_P2
2022/08/11 00:01:18;;;;;;;3.60;2.20;;;;;;;;;;5052469;28;20460;-75
2022/08/11 00:03:46;;;;;;;3.77;2.53;;;;;;;;;;5052696;28;20415;-76
2022/08/11 00:06:13;;;;;;;4.07;2.90;;;;;;;;;;5052734;28;20891;-76
2022/08/11 00:08:39;;;;;;;3.20;2.53;;;;;;;;;;5052606;28;20417;-76
2022/08/11 00:11:06;;;;;;;2.70;2.50;;;;;;;;;;5052326;28;20474;-76
2022/08/11 00:13:44;;;;;;;3.00;2.70;;;;;;;;;;5052674;28;20493;-76
2022/08/11 00:16:15;;;;;;;3.63;2.87;;;;;;;;;;5052667;28;20817;-76
2022/08/11 00:18:42;;;;;;;2.70;2.27;;;;;;;;;;5052775;28;20409;-76
2022/08/11 00:21:10;;;;;;;4.80;2.63;;;;;;;;;;5052057;28;20587;-75
2022/08/11 00:23:41;;;;;;;4.63;2.23;;;;;;;;;;5052656;28;20908;-75
2022/08/11 00:26:07;;;;;;;4.50;2.87;;;;;;;;;;5052839;28;20452;-76
2022/08/11 00:28:34;;;;;;;3.50;2.60;;;;;;;;;;5052701;28;20412;-76
2022/08/11 00:31:05;;;;;;;3.60;2.57;;;;;;;;;;5052254;28;20919;-76
2022/08/11 00:33:41;;;;;;;3.50;2.83;;;;;;;;;;5052566;28;20415;-76
2022/08/11 00:36:08;;;;;;;4.17;3.07;;;;;;;;;;5052629;28;20392;-77
2022/08/11 00:38:36;;;;;;;3.43;3.03;;;;;;;;;;5052592;28;20786;-77
2022/08/11 00:41:02;;;;;;;9.13;3.80;;;;;;;;;;5051990;28;20511;-77
2022/08/11 00:43:37;;;;;;;3.30;2.50;;;;;;;;;;5052425;28;20499;-77
2022/08/11 00:46:18;;;;;;;3.37;2.60;;;;;;;;;;5052414;28;20566;-77
2022/08/11 00:49:02;;;;;;;4.80;2.63;;;;;;;;;;5053186;28;20908;-77
2022/08/11 00:51:44;;;;;;;5.63;2.70;;;;;;;;;;5055575;28;20424;-77
2022/08/11 00:54:19;;;;;;;3.33;2.57;;;;;;;;;;5056105;28;20400;-77
2022/08/11 00:56:45;;;;;;;2.63;2.43;;;;;;;;;;5055847;28;20411;-77
2022/08/11 00:59:30;;;;;;;8.60;2.83;;;;;;;;;;5055698;28;20401;-76
2022/08/11 01:02:08;;;;;;;4.60;3.10;;;;;;;;;;5055674;28;20523;-77
2022/08/11 01:04:38;;;;;;;8.63;3.23;;;;;;;;;;5054656;28;20419;-77
2022/08/11 01:07:04;;;;;;;3.43;2.80;;;;;;;;;;5054414;28;20486;-77
2022/08/11 01:09:56;;;;;;;3.50;2.97;;;;;;;;;;5055342;28;21135;-79
2022/08/11 01:12:41;;;;;;;5.27;2.70;;;;;;;;;;5032723;28;20420;-77
2022/08/11 01:15:25;;;;;;;3.43;2.90;;;;;;;;;;5055516;28;20403;-77
2022/08/11 01:18:10;;;;;;;3.13;2.83;;;;;;;;;;5055461;28;20415;-77
2022/08/11 01:20:59;;;;;;;2.83;2.53;;;;;;;;;;5053881;28;20404;-78
2022/08/11 01:23:44;;;;;;;4.03;3.40;;;;;;;;;;5055356;28;20403;-77
2022/08/11 01:26:13;;;;;;;6.13;2.77;;;;;;;;;;5055133;28;20473;-77
2022/08/11 01:28:48;;;;;;;3.77;2.97;;;;;;;;;;5055197;28;20855;-77
2022/08/11 01:31:33;;;;;;;3.80;2.90;;;;;;;;;;5055000;28;20436;-77
2022/08/11 01:34:19;;;;;;;3.70;2.90;;;;;;;;;;5055441;28;20465;-76
2022/08/11 01:36:48;;;;;;;3.77;3.37;;;;;;;;;;5055187;28;20410;-76
2022/08/11 01:39:38;;;;;;;3.67;3.30;;;;;;;;;;5055003;28;20492;-77
2022/08/11 01:45:10;;;;;;;6.03;3.20;;;;;;;;;;5055437;28;20397;-77
2022/08/11 01:47:59;;;;;;;2.70;2.50;;;;;;;;;;5054747;28;20467;-76
2022/08/11 01:50:37;;;;;;;3.07;2.77;;;;;;;;;;5054599;28;20430;-77
2022/08/11 01:53:21;;;;;;;3.23;2.93;;;;;;;;;;5054898;28;20838;-77
2022/08/11 01:55:47;;;;;;;3.70;3.00;;;;;;;;;;5054892;28;20403;-77
2022/08/11 01:58:16;;;;;;;7.03;2.80;;;;;;;;;;5054933;28;20902;-77
2022/08/11 02:01:01;;;;;;;5.73;3.10;;;;;;;;;;5053128;28;20396;-76
2022/08/11 02:03:36;;;;;;;4.03;3.07;;;;;;;;;;5054702;28;20408;-77
2022/08/11 02:09:14;;;;;;;4.43;3.07;;;;;;;;;;5054633;28;20384;-77
2022/08/11 02:11:44;;;;;;;3.77;3.43;;;;;;;;;;5053907;28;20435;-77
2022/08/11 02:14:14;;;;;;;5.53;3.40;;;;;;;;;;5054288;28;20459;-77
2022/08/11 02:16:43;;;;;;;4.10;3.30;;;;;;;;;;5054389;28;20821;-77
2022/08/11 02:24:59;;;;;;;3.60;3.30;;;;;;;;;;5054505;28;20977;-77
2022/08/11 02:27:32;;;;;;;3.73;3.30;;;;;;;;;;5054153;28;20441;-77
2022/08/11 02:30:06;;;;;;;4.43;3.80;;;;;;;;;;5053650;28;20401;-77
2022/08/11 02:35:41;;;;;;;4.07;3.50;;;;;;;;;;5053962;28;20444;-77
2022/08/11 02:38:26;;;;;;;5.93;3.97;;;;;;;;;;5052525;28;20508;-77
2022/08/11 02:42:21;;;;;;;3.60;3.30;;;;;;;;;;5053498;28;20433;-77
2022/08/11 02:44:06;;;;;;;3.30;3.00;;;;;;;;;;5053571;28;20420;-77
2022/08/11 02:46:39;;;;;;;4.67;3.90;;;;;;;;;;5052667;28;20451;-77
2022/08/11 02:51:59;;;;;;;5.27;3.70;;;;;;;;;;5053872;28;20940;-77
2022/08/11 02:54:44;;;;;;;5.87;3.33;;;;;;;;;;5053806;28;20401;-77
2022/08/11 02:57:40;;;;;;;4.17;3.60;;;;;;;;;;5053863;28;20398;-77
2022/08/11 03:00:08;;;;;;;5.30;3.50;;;;;;;;;;5040403;28;20440;-78
2022/08/11 03:02:48;;;;;;;5.90;4.03;;;;;;;;;;5053370;28;20410;-77
2022/08/11 03:05:19;;;;;;;4.40;4.00;;;;;;;;;;5053614;28;20393;-77
2022/08/11 03:07:51;;;;;;;4.90;4.10;;;;;;;;;;5053309;28;20457;-77
2022/08/11 03:10:26;;;;;;;3.77;3.40;;;;;;;;;;5052921;28;20434;-77
2022/08/11 03:18:56;;;;;;;4.80;3.93;;;;;;;;;;5052297;28;20412;-76
2022/08/11 03:21:28;;;;;;;5.00;4.60;;;;;;;;;;5052882;28;20448;-77
2022/08/11 03:24:30;;;;;;;6.03;3.50;;;;;;;;;;5053185;28;20409;-77
2022/08/11 03:27:05;;;;;;;4.53;3.60;;;;;;;;;;4991741;28;20526;-77
2022/08/11 03:29:35;;;;;;;4.00;3.60;;;;;;;;;;5044590;28;20391;-77
2022/08/11 03:32:05;;;;;;;4.83;4.40;;;;;;;;;;5053080;28;20789;-76
2022/08/11 03:34:36;;;;;;;11.23;4.50;;;;;;;;;;5052937;28;20436;-77
2022/08/11 03:37:11;;;;;;;4.90;4.10;;;;;;;;;;5053068;28;20421;-76
2022/08/11 03:39:43;;;;;;;4.77;3.77;;;;;;;;;;5052824;28;20396;-77
2022/08/11 03:42:09;;;;;;;11.43;4.90;;;;;;;;;;5053227;28;20447;-77
2022/08/11 03:44:48;;;;;;;6.30;4.23;;;;;;;;;;5052761;28;20391;-77
2022/08/11 03:47:33;;;;;;;6.70;4.40;;;;;;;;;;5053023;28;20509;-76
2022/08/11 03:49:58;;;;;;;6.10;4.53;;;;;;;;;;5052629;28;20500;-77
2022/08/11 03:52:43;;;;;;;4.73;4.23;;;;;;;;;;5052844;28;20501;-77
2022/08/11 03:55:30;;;;;;;8.67;5.03;;;;;;;;;;5052931;28;20488;-76
2022/08/11 03:57:58;;;;;;;9.97;5.33;;;;;;;;;;5053164;28;20379;-76
2022/08/11 04:00:42;;;;;;;5.37;4.73;;;;;;;;;;5052472;28;20507;-77
2022/08/11 04:03:17;;;;;;;7.63;4.90;;;;;;;;;;5052957;28;20911;-77
2022/08/11 04:06:01;;;;;;;5.10;4.30;;;;;;;;;;5052732;28;20366;-76
2022/08/11 04:08:30;;;;;;;8.40;5.10;;;;;;;;;;5052889;28;20405;-77
2022/08/11 04:10:56;;;;;;;6.70;4.43;;;;;;;;;;5052381;28;20422;-77
2022/08/11 04:13:41;;;;;;;7.13;4.93;;;;;;;;;;5052798;28;20428;-77
2022/08/11 04:16:07;;;;;;;9.70;4.90;;;;;;;;;;5052755;28;20728;-76
2022/08/11 04:18:42;;;;;;;4.70;4.23;;;;;;;;;;5052506;28;20419;-77
2022/08/11 04:21:31;;;;;;;5.50;4.57;;;;;;;;;;5052199;28;20424;-76
2022/08/11 04:24:17;;;;;;;7.40;5.30;;;;;;;;;;5053453;28;20417;-78
2022/08/11 04:26:44;;;;;;;6.83;5.00;;;;;;;;;;5056203;28;20865;-77
2022/08/11 04:29:34;;;;;;;6.10;5.50;;;;;;;;;;5056310;28;20442;-77
2022/08/11 04:32:03;;;;;;;8.90;5.33;;;;;;;;;;5056246;28;20420;-77
2022/08/11 04:34:32;;;;;;;10.60;5.13;;;;;;;;;;5056295;28;20404;-77
2022/08/11 04:39:55;;;;;;;7.93;4.87;;;;;;;;;;5055735;28;20403;-77
2022/08/11 04:45:19;;;;;;;6.10;4.90;;;;;;;;;;5056052;28;20950;-77
2022/08/11 05:02:35;;;;;;;6.40;5.57;;;;;;;;;;5040448;28;20428;-77
2022/08/11 05:08:07;;;;;;;7.00;5.00;;;;;;;;;;5055665;28;20475;-77
2022/08/11 05:10:33;;;;;;;5.37;4.87;;;;;;;;;;5055140;28;20493;-77
2022/08/11 05:27:09;;;;;;;5.30;4.80;;;;;;;;;;5055451;28;21079;-77
2022/08/11 05:35:31;;;;;;;6.83;5.10;;;;;;;;;;5055089;28;20396;-76
2022/08/11 05:57:29;;;;;;;13.60;5.80;;;;;;;;;;5054929;28;20436;-76
2022/08/11 06:00:04;;;;;;;9.27;4.90;;;;;;;;;;5054130;28;20440;-76
2022/08/11 06:02:30;;;;;;;7.77;5.23;;;;;;;;;;5054545;28;20913;-76
2022/08/11 06:05:00;;;;;;;9.60;4.77;;;;;;;;;;5054426;28;20451;-77
2022/08/11 06:07:28;;;;;;;5.07;4.10;;;;;;;;;;5054406;28;20834;-76
2022/08/11 06:09:55;;;;;;;7.70;4.70;;;;;;;;;;5054163;28;20420;-76
2022/08/11 06:12:34;;;;;;;5.77;5.17;;;;;;;;;;5053338;28;20429;-76
2022/08/11 06:15:04;;;;;;;5.70;4.33;;;;;;;;;;5043906;28;20920;-76
2022/08/11 06:17:32;;;;;;;10.10;4.77;;;;;;;;;;5044818;28;20397;-76
2022/08/11 06:20:11;;;;;;;10.00;4.40;;;;;;;;;;5043138;28;20979;-76
2022/08/11 06:22:38;;;;;;;8.47;5.77;;;;;;;;;;5043590;28;20419;-76
2022/08/11 06:25:06;;;;;;;10.10;4.97;;;;;;;;;;5051244;28;20483;-76
2022/08/11 06:27:35;;;;;;;6.27;5.07;;;;;;;;;;5054003;28;20814;-75
2022/08/11 06:30:01;;;;;;;10.40;4.63;;;;;;;;;;5053497;28;20500;-76
2022/08/11 06:32:35;;;;;;;7.83;4.27;;;;;;;;;;5054146;28;20407;-76
2022/08/11 06:35:21;;;;;;;7.60;4.70;;;;;;;;;;5053889;28;20447;-76
2022/08/11 06:38:09;;;;;;;7.97;4.10;;;;;;;;;;5053627;28;20446;-76
2022/08/11 06:40:38;;;;;;;12.23;4.90;;;;;;;;;;5053558;28;20486;-76
2022/08/11 06:43:10;;;;;;;6.60;3.93;;;;;;;;;;5051444;28;20401;-77
2022/08/11 06:45:52;;;;;;;10.37;4.57;;;;;;;;;;5048492;28;20768;-77
2022/08/11 06:48:20;;;;;;;9.33;4.50;;;;;;;;;;5053374;28;20425;-77
2022/08/11 06:53:33;;;;;;;8.70;4.53;;;;;;;;;;5053582;28;20754;-77
2022/08/11 07:01:45;;;;;;;7.53;4.30;;;;;;;;;;5053560;28;20423;-76
2022/08/11 07:04:13;;;;;;;7.23;4.23;;;;;;;;;;5053595;28;20436;-77
2022/08/11 07:15:40;;;;;;;7.90;4.57;;;;;;;;;;5047197;28;20536;-77
2022/08/11 07:15:43;;;;;;;8.47;4.50;;;;;;;;;;5053539;28;20454;-77
2022/08/11 07:29:51;;;;;;;6.87;3.43;;;;;;;;;;5053016;28;20439;-77
2022/08/11 07:32:23;;;;;;;12.77;3.80;;;;;;;;;;5053304;28;20408;-78
2022/08/11 07:34:52;;;;;;;5.03;3.50;;;;;;;;;;5052138;28;20401;-78
2022/08/11 07:37:19;;;;;;;6.53;3.50;;;;;;;;;;5051827;28;20575;-77
2022/08/11 07:39:45;;;;;;;4.30;3.63;;;;;;;;;;5052681;28;20928;-78
2022/08/11 07:42:14;;;;;;;5.63;3.53;;;;;;;;;;5052945;28;20408;-77
2022/08/11 07:52:58;;;;;;;4.60;3.33;;;;;;;;;;5053159;28;20416;-76
2022/08/11 07:55:24;;;;;;;5.60;3.73;;;;;;;;;;5052911;28;20413;-76
2022/08/11 08:19:59;;;;;;;6.00;2.80;;;;;;;;;;5056350;28;20459;-78
2022/08/11 08:22:26;;;;;;;4.97;3.37;;;;;;;;;;5056489;28;20409;-76
2022/08/11 08:24:54;;;;;;;3.57;2.87;;;;;;;;;;5056350;28;20408;-77
2022/08/11 08:27:20;;;;;;;3.23;2.93;;;;;;;;;;5056254;28;21022;-77
2022/08/11 08:32:33;;;;;;;4.23;2.83;;;;;;;;;;5048833;28;20455;-78
2022/08/11 08:35:01;;;;;;;10.03;2.73;;;;;;;;;;5049741;28;20405;-77
2022/08/11 08:37:27;;;;;;;6.90;2.53;;;;;;;;;;5044241;28;20488;-76
2022/08/11 08:39:54;;;;;;;4.00;2.63;;;;;;;;;;5045067;28;20409;-76
2022/08/11 08:42:30;;;;;;;8.03;2.87;;;;;;;;;;5044101;28;20405;-77
2022/08/11 08:45:03;;;;;;;2.50;2.30;;;;;;;;;;5041614;28;20408;-76
2022/08/11 08:47:30;;;;;;;4.00;2.57;;;;;;;;;;5050550;28;20964;-76
2022/08/11 08:50:05;;;;;;;6.60;2.83;;;;;;;;;;5055649;28;20435;-76
2022/08/11 08:52:46;;;;;;;5.17;2.80;;;;;;;;;;5055828;28;20814;-75
2022/08/11 08:55:16;;;;;;;3.83;2.50;;;;;;;;;;5055993;28;20462;-76
2022/08/11 08:57:43;;;;;;;6.33;3.10;;;;;;;;;;5054564;28;20777;-76
2022/08/11 09:00:09;;;;;;;8.00;2.47;;;;;;;;;;5055416;28;20454;-77
2022/08/11 09:02:36;;;;;;;2.67;2.30;;;;;;;;;;5055834;28;20421;-77
2022/08/11 09:05:03;;;;;;;3.50;2.40;;;;;;;;;;5055678;28;20498;-77
2022/08/11 09:07:30;;;;;;;4.37;2.30;;;;;;;;;;5053453;28;20456;-77
2022/08/11 09:09:57;;;;;;;6.17;2.93;;;;;;;;;;5037341;28;20471;-76
2022/08/11 09:12:26;;;;;;;3.10;2.63;;;;;;;;;;5035475;28;20402;-76
2022/08/11 09:15:02;;;;;;;5.70;2.90;;;;;;;;;;5035598;28;20405;-76
2022/08/11 09:17:31;;;;;;;8.23;2.50;;;;;;;;;;5035833;28;20410;-76
2022/08/11 09:20:05;;;;;;;4.70;2.93;;;;;;;;;;5035133;28;20410;-76
2022/08/11 09:28:04;;;;;;;3.87;2.67;;;;;;;;;;5035815;28;20932;-77
2022/08/11 09:30:30;;;;;;;5.90;2.80;;;;;;;;;;5034865;28;20421;-77
2022/08/11 09:32:59;;;;;;;4.87;2.80;;;;;;;;;;5035271;28;20807;-76
2022/08/11 09:35:29;;;;;;;4.50;2.70;;;;;;;;;;5034000;28;20828;-76
2022/08/11 09:40:43;;;;;;;2.90;2.60;;;;;;;;;;5035024;28;20984;-76
2022/08/11 09:45:55;;;;;;;6.03;2.30;;;;;;;;;;5035288;28;20436;-76
2022/08/11 09:48:25;;;;;;;5.50;2.40;;;;;;;;;;5035151;28;20420;-76
2022/08/11 09:50:53;;;;;;;4.40;2.50;;;;;;;;;;5034714;28;20429;-76
2022/08/11 09:53:20;;;;;;;3.97;2.50;;;;;;;;;;5034765;28;20890;-77
2022/08/11 09:55:46;;;;;;;3.70;2.73;;;;;;;;;;5035126;28;20405;-77
2022/08/11 09:58:13;;;;;;;3.40;2.10;;;;;;;;;;5034790;28;20437;-76
2022/08/11 10:00:40;;;;;;;3.67;2.37;;;;;;;;;;5034562;28;20468;-76
2022/08/11 10:03:14;;;;;;;2.87;2.67;;;;;;;;;;5034713;28;20420;-77
2022/08/11 10:08:29;;;;;;;4.37;2.57;;;;;;;;;;5034873;28;20475;-76
2022/08/11 10:10:55;;;;;;;3.00;2.63;;;;;;;;;;5034380;28;20428;-76
2022/08/11 10:13:24;;;;;;;5.07;3.03;;;;;;;;;;5034513;28;20447;-76
2022/08/11 10:15:51;;;;;;;2.47;2.00;;;;;;;;;;5034447;28;20491;-76
2022/08/11 10:21:09;;;;;;;5.43;2.27;;;;;;;;;;5033780;28;20424;-77
2022/08/11 10:34:39;;;;;;;3.23;2.40;;;;;;;;;;5034466;28;20403;-75
2022/08/11 10:37:06;;;;;;;2.20;1.80;;;;;;;;;;5032779;28;20448;-76
2022/08/11 10:39:32;;;;;;;4.53;2.10;;;;;;;;;;5032386;28;20424;-76
2022/08/11 10:44:56;;;;;;;2.70;2.33;;;;;;;;;;5091340;28;20425;-75
2022/08/11 10:47:34;;;;;;;3.27;2.23;;;;;;;;;;5111247;28;20477;-75
2022/08/11 11:01:13;;;;;;;3.00;2.50;;;;;;;;;;5067775;28;20500;-75
2022/08/11 11:03:40;;;;;;;3.97;2.50;;;;;;;;;;5083852;28;20970;-76
2022/08/11 11:06:24;;;;;;;6.33;2.57;;;;;;;;;;5110586;28;20442;-76
2022/08/11 11:08:51;;;;;;;3.87;2.07;;;;;;;;;;5110457;28;20386;-75
2022/08/11 11:11:18;;;;;;;3.03;2.23;;;;;;;;;;5110290;28;20510;-76
2022/08/11 11:19:19;;;;;;;4.23;2.50;;;;;;;;;;5110763;28;20404;-75
2022/08/11 11:21:47;;;;;;;2.33;2.13;;;;;;;;;;5109874;28;20537;-75
2022/08/11 11:24:21;;;;;;;3.20;2.40;;;;;;;;;;5110288;28;20409;-75
2022/08/11 11:26:55;;;;;;;4.50;2.90;;;;;;;;;;5110216;28;20658;-75
2022/08/11 11:29:30;;;;;;;3.47;2.40;;;;;;;;;;5110183;28;20435;-76
2022/08/11 11:32:05;;;;;;;5.00;2.47;;;;;;;;;;5109841;28;20437;-74
2022/08/11 11:34:50;;;;;;;2.57;2.37;;;;;;;;;;5110140;28;20869;-75
2022/08/11 11:37:17;;;;;;;5.10;2.50;;;;;;;;;;5110257;28;20437;-75
2022/08/11 11:39:43;;;;;;;2.40;2.20;;;;;;;;;;5109339;28;20409;-76
2022/08/11 11:42:10;;;;;;;5.30;2.30;;;;;;;;;;5109676;28;20398;-76
2022/08/11 11:44:37;;;;;;;5.77;2.60;;;;;;;;;;5109743;28;20401;-76
2022/08/11 11:47:04;;;;;;;2.10;1.90;;;;;;;;;;5110085;28;20764;-76
2022/08/11 11:49:31;;;;;;;2.30;2.00;;;;;;;;;;5109485;28;20410;-78
2022/08/11 11:51:58;;;;;;;6.30;2.70;;;;;;;;;;5104344;28;20426;-76
2022/08/11 11:54:25;;;;;;;8.17;2.60;;;;;;;;;;5096298;28;20438;-75
2022/08/11 11:56:55;;;;;;;2.23;1.93;;;;;;;;;;5096207;28;20402;-75
2022/08/11 12:02:07;;;;;;;4.30;1.90;;;;;;;;;;5096236;28;20397;-76
2022/08/11 12:04:35;;;;;;;2.70;2.17;;;;;;;;;;5095999;28;20489;-75
2022/08/11 12:09:47;;;;;;;2.47;2.27;;;;;;;;;;5095644;28;20406;-75
2022/08/11 12:14:58;;;;;;;4.87;2.20;;;;;;;;;;5095981;28;20532;-74
2022/08/11 12:17:24;;;;;;;4.03;2.20;;;;;;;;;;5095776;28;20395;-76
2022/08/11 12:19:51;;;;;;;4.30;2.30;;;;;;;;;;5095111;28;20444;-75
2022/08/11 12:27:48;;;;;;;3.70;2.60;;;;;;;;;;5095663;28;20406;-75
2022/08/11 12:30:14;;;;;;;1.90;1.80;;;;;;;;;;5094938;28;20874;-75
2022/08/11 12:32:40;;;;;;;6.00;2.53;;;;;;;;;;5095277;28;20425;-75
2022/08/11 12:35:07;;;;;;;3.60;2.17;;;;;;;;;;5095279;28;20445;-76
2022/08/11 12:37:40;;;;;;;3.50;2.40;;;;;;;;;;5095386;28;20403;-76
2022/08/11 12:45:44;;;;;;;2.67;2.37;;;;;;;;;;5095205;28;20531;-76
2022/08/11 12:53:52;;;;;;;4.03;2.33;;;;;;;;;;5095152;28;20502;-75
2022/08/11 13:04:55;;;;;;;3.80;2.50;;;;;;;;;;5093765;28;20402;-75
2022/08/11 13:07:21;;;;;;;2.70;2.30;;;;;;;;;;5094721;28;20451;-74
2022/08/11 13:09:48;;;;;;;3.37;2.50;;;;;;;;;;5094305;28;20925;-74
2022/08/11 13:15:01;;;;;;;3.47;2.20;;;;;;;;;;5095042;28;20420;-74
2022/08/11 13:17:28;;;;;;;2.33;2.13;;;;;;;;;;5094711;28;20767;-74
2022/08/11 13:19:54;;;;;;;3.10;2.30;;;;;;;;;;5093989;28;20394;-74
2022/08/11 13:22:23;;;;;;;2.57;2.37;;;;;;;;;;5094415;28;20785;-75
2022/08/11 13:24:49;;;;;;;2.83;2.57;;;;;;;;;;5094338;28;20871;-74
2022/08/11 13:27:17;;;;;;;2.50;2.30;;;;;;;;;;5094218;28;20899;-74
2022/08/11 13:29:45;;;;;;;3.97;2.20;;;;;;;;;;5093772;28;20915;-75
2022/08/11 13:32:11;;;;;;;2.97;2.40;;;;;;;;;;5094200;28;20413;-74
2022/08/11 13:34:41;;;;;;;6.77;2.60;;;;;;;;;;5093916;28;20406;-75
2022/08/11 13:37:07;;;;;;;4.07;2.40;;;;;;;;;;5093873;28;20542;-74
2022/08/11 13:39:34;;;;;;;4.90;2.90;;;;;;;;;;5093648;28;20414;-75
2022/08/11 13:42:00;;;;;;;5.77;2.43;;;;;;;;;;5093506;28;20470;-75
2022/08/11 13:44:28;;;;;;;5.17;2.20;;;;;;;;;;5089597;28;20421;-74
2022/08/11 13:46:56;;;;;;;2.10;2.00;;;;;;;;;;5081507;28;20406;-76
2022/08/11 13:49:23;;;;;;;3.00;2.20;;;;;;;;;;5082952;28;20917;-74
2022/08/11 13:51:49;;;;;;;4.30;2.63;;;;;;;;;;5082420;28;20546;-73
2022/08/11 13:54:19;;;;;;;2.93;2.67;;;;;;;;;;5082568;28;20402;-74
2022/08/11 13:56:48;;;;;;;3.00;2.30;;;;;;;;;;5082328;28;20803;-74
2022/08/11 13:59:15;;;;;;;3.63;2.23;;;;;;;;;;5080570;28;20415;-75
2022/08/11 14:01:43;;;;;;;3.20;2.17;;;;;;;;;;5082976;28;20471;-74
2022/08/11 14:04:11;;;;;;;2.43;2.13;;;;;;;;;;5073692;28;20468;-74
2022/08/11 14:06:40;;;;;;;5.63;2.60;;;;;;;;;;5073337;28;20403;-73
2022/08/11 14:09:10;;;;;;;3.10;2.67;;;;;;;;;;5073300;28;20499;-74
2022/08/11 14:14:25;;;;;;;2.20;2.00;;;;;;;;;;5073460;28;20414;-74
2022/08/11 14:16:53;;;;;;;7.17;2.70;;;;;;;;;;5073026;28;20744;-75
2022/08/11 14:19:21;;;;;;;4.20;2.57;;;;;;;;;;5073089;28;20425;-75
2022/08/11 14:24:32;;;;;;;2.87;2.63;;;;;;;;;;5073459;28;20442;-74
2022/08/11 14:26:59;;;;;;;3.03;2.37;;;;;;;;;;5072999;28;20502;-74
2022/08/11 14:29:27;;;;;;;2.73;2.50;;;;;;;;;;5072916;28;20490;-74
2022/08/11 14:31:54;;;;;;;3.07;2.57;;;;;;;;;;5072792;28;20457;-75
2022/08/11 14:34:21;;;;;;;3.00;2.50;;;;;;;;;;5073151;28;20793;-75
2022/08/11 14:36:51;;;;;;;2.60;2.40;;;;;;;;;;5072985;28;20907;-74
2022/08/11 14:39:22;;;;;;;2.53;2.27;;;;;;;;;;5071588;28;20419;-75
2022/08/11 14:47:33;;;;;;;2.97;2.30;;;;;;;;;;5072924;28;20395;-74
2022/08/11 14:50:01;;;;;;;3.67;2.43;;;;;;;;;;5072583;28;20482;-75
2022/08/11 14:52:27;;;;;;;2.57;2.33;;;;;;;;;;5072702;28;20416;-75
2022/08/11 14:57:40;;;;;;;5.07;2.50;;;;;;;;;;5072934;28;20434;-74
2022/08/11 15:00:08;;;;;;;4.53;2.57;;;;;;;;;;5072416;28;20962;-74
2022/08/11 15:05:23;;;;;;;4.50;2.20;;;;;;;;;;5072797;28;20410;-74
2022/08/11 15:07:49;;;;;;;3.87;2.27;;;;;;;;;;5072732;28;20404;-74
2022/08/11 15:10:16;;;;;;;2.47;2.27;;;;;;;;;;5072268;28;20427;-74
2022/08/11 15:12:42;;;;;;;4.07;2.50;;;;;;;;;;5072643;28;20411;-73
2022/08/11 15:17:54;;;;;;;3.33;2.60;;;;;;;;;;5072711;28;20434;-74
2022/08/11 15:25:54;;;;;;;3.80;2.63;;;;;;;;;;5072707;28;20414;-75
2022/08/11 15:39:26;;;;;;;3.40;3.10;;;;;;;;;;5076332;28;20410;-73
2022/08/11 15:47:56;;;;;;;3.67;2.57;;;;;;;;;;5075884;28;20445;-77
2022/08/11 15:50:24;;;;;;;2.20;2.00;;;;;;;;;;5075643;28;20450;-75
2022/08/11 15:52:54;;;;;;;4.30;2.53;;;;;;;;;;5075929;28;20457;-75
2022/08/11 15:55:22;;;;;;;2.03;1.93;;;;;;;;;;5075858;28;20498;-75
2022/08/11 16:06:07;;;;;;;3.83;2.73;;;;;;;;;;5075729;28;20825;-75
2022/08/11 16:08:34;;;;;;;3.70;2.37;;;;;;;;;;5075805;28;20498;-76
2022/08/11 16:11:01;;;;;;;2.77;2.57;;;;;;;;;;5075274;28;20469;-75
2022/08/11 16:16:14;;;;;;;3.10;2.10;;;;;;;;;;5075323;28;20459;-75
2022/08/11 16:18:48;;;;;;;2.70;2.17;;;;;;;;;;5075423;28;20820;-75
2022/08/11 16:21:16;;;;;;;3.20;2.43;;;;;;;;;;5074807;28;20869;-75
2022/08/11 16:23:43;;;;;;;3.10;2.53;;;;;;;;;;5075229;28;20490;-75
2022/08/11 16:26:10;;;;;;;3.53;2.43;;;;;;;;;;5075031;28;20414;-75
2022/08/11 16:28:38;;;;;;;6.33;2.57;;;;;;;;;;5075346;28;20815;-75
2022/08/11 16:31:09;;;;;;;2.67;2.30;;;;;;;;;;5074532;28;20521;-75
2022/08/11 16:33:36;;;;;;;5.33;2.57;;;;;;;;;;5074957;28;20416;-75
2022/08/11 16:38:49;;;;;;;3.73;2.23;;;;;;;;;;5075027;28;20465;-75
2022/08/11 16:46:58;;;;;;;2.43;2.20;;;;;;;;;;5074207;28;20489;-75
2022/08/11 16:49:26;;;;;;;3.17;2.20;;;;;;;;;;5074918;28;20468;-75
2022/08/11 16:51:52;;;;;;;2.70;2.50;;;;;;;;;;5074289;28;20426;-75
2022/08/11 16:54:18;;;;;;;2.90;2.50;;;;;;;;;;5074551;28;20486;-75
2022/08/11 16:56:53;;;;;;;2.60;2.40;;;;;;;;;;5074558;28;20777;-75
2022/08/11 16:59:22;;;;;;;4.10;3.70;;;;;;;;;;5074401;28;20406;-75
2022/08/11 17:01:51;;;;;;;5.73;2.70;;;;;;;;;;5074084;28;20458;-75
2022/08/11 17:21:04;;;;;;;3.90;2.80;;;;;;;;;;5073770;28;20508;-75
2022/08/11 17:23:46;;;;;;;2.70;2.50;;;;;;;;;;5074137;28;20430;-74
2022/08/11 17:26:24;;;;;;;4.30;2.80;;;;;;;;;;5074063;28;20384;-74
2022/08/11 17:28:56;;;;;;;2.53;2.30;;;;;;;;;;5073792;28;20411;-74
2022/08/11 17:36:56;;;;;;;4.00;2.70;;;;;;;;;;5073943;28;20438;-74
2022/08/11 17:39:30;;;;;;;4.97;2.97;;;;;;;;;;5073852;28;20426;-74
2022/08/11 17:50:13;;;;;;;3.90;3.50;;;;;;;;;;5072887;28;20788;-75
2022/08/11 18:00:58;;;;;;;8.23;3.03;;;;;;;;;;5088959;28;20474;-75
2022/08/11 18:03:38;;;;;;;5.13;3.07;;;;;;;;;;5093499;28;20410;-75
2022/08/11 18:06:05;;;;;;;5.13;2.40;;;;;;;;;;5093499;28;20926;-75
